Rechercher aéroport 
image banner adimage banner adimage banner ad
image banner ad

SVOZ - Banco Occidental De Descuento

Situé à Maracaibo, Venezuela

ICAO - SVOZ, IATA -

Données fournies par Airmate  

Information générale

Coordonnées: N10°39'57" W71°37'6"
Élévation : 209 feet MSL.
 
Voir autres Aéroports à Apure

Données opérationnelles

Special qualification required
Heure actuelle UTC:
Heure actuelle locale:
Météo à : SVMC - Maracaibo / La Chinita Intl ( 17 km )
METAR: SVMC 131102Z AUTO NIL
TAF: TAF SVMC 122200Z 1300/1400 07003KT 9000 SCT016 TX29/1300Z TN20/1308Z TEMPO 1300/1304 07004KT 9000 SCT013 BKN100
Voir NOTAMs / SUP AIP / TFR affectant cet aéroport [VIEW]
Fréquences de communication: [VIEW]

Pistes:

Coordonnées de l'aéroport

Adresse: Maracaibo Venezuela

Vue satellite de SVOZ